This is the latest recevied weather packets stored in our database for station/object WD5U-1. If no packets are shown the sender has not sent any weather packets the latest 10 day(s).
| Time | Temp. | Humidity | Pressure | Rain* | Wind** | Luminosity | Snow |
|---|---|---|---|---|---|---|---|
| 1777905261 | 19.44° C | 73% | 1013.4 hPa | 0 mm | - | - | - |
| 1777904937 | 19.44° C | 73% | 1013.7 hPa | 0 mm | - | - | - |
| 1777904179 | 19.44° C | 75% | 1013.7 hPa | 0 mm | - | - | - |
| 1777903824 | 19.44° C | 75% | 1013.8 hPa | 0 mm | - | - | - |
| 1777903127 | 18.89° C | 75% | 1013.6 hPa | 0 mm | - | - | - |
| 1777902042 | 17.78° C | 76% | 1013.8 hPa | 0 mm | - | - | - |
| 1777901658 | 18.33° C | 77% | 1013.6 hPa | 0 mm | - | - | - |
| 1777901425 | 17.78° C | 77% | 1013.5 hPa | 0 mm | - | - | - |
| 1777901182 | 17.78° C | 77% | 1013.7 hPa | 0 mm | - | - | - |
| 1777899623 | 16.11° C | 80% | 1013.7 hPa | 0 mm | - | - | - |
| 1777899501 | 16.11° C | 80% | 1013.8 hPa | 0 mm | - | - | - |
| 1777899400 | 16.11° C | 80% | 1013.8 hPa | 0 mm | - | - | - |
| 1777898782 | 16.11° C | 81% | 1013.4 hPa | 0 mm | - | - | - |
| 1777897122 | 15.56° C | 81% | 1013.4 hPa | 0 mm | - | - | - |
| 1777896860 | 15.56° C | 81% | 1013.6 hPa | 0 mm | - | - | - |
| 1777896040 | 15° C | 81% | 1013.4 hPa | 0 mm | - | - | - |
| 1777895544 | 15° C | 81% | 1013.3 hPa | 0 mm | - | - | - |
| 1777895422 | 15° C | 81% | 1013.3 hPa | 0 mm | - | - | - |
| 1777894339 | 15° C | 80% | 1013.3 hPa | 0 mm | - | - | - |
| 1777893987 | 15° C | 79% | 1013.4 hPa | 0 mm | - | - | - |
| 1777893499 | 15° C | 79% | 1013.5 hPa | 0 mm | - | - | - |
| 1777891940 | 15.56° C | 77% | 1013.5 hPa | 0 mm | - | - | - |
| 1777891820 | 15.56° C | 77% | 1013.5 hPa | 0 mm | - | - | - |
| 1777891345 | 15.56° C | 76% | 1013.7 hPa | 0 mm | - | - | - |
| 1777891221 | 15.56° C | 76% | 1013.6 hPa | 0 mm | - | - | - |
* Rain latest hour (hover to see other rain measurements)
** Current wind speed in m/s (hover to see current wind gust speed)